createdAt,value
2017-12-04T00:01:10.948Z,69.20
2017-12-04T00:03:39.273Z,62.15
2017-12-04T00:06:06.819Z,75.53
2017-12-04T00:08:34.349Z,62.88
2017-12-04T00:11:02.661Z,65.43
2017-12-04T00:13:30.207Z,68.78
2017-12-04T00:15:57.782Z,58.55
2017-12-04T00:18:25.323Z,69.75
2017-12-04T00:20:52.867Z,69.78
2017-12-04T00:23:21.175Z,70.97
2017-12-04T00:25:48.701Z,78.10
2017-12-04T00:28:17.048Z,71.72
2017-12-04T00:30:44.589Z,82.37
2017-12-04T00:33:12.136Z,68.10
2017-12-04T00:35:39.684Z,82.25
2017-12-04T00:38:07.205Z,79.72
2017-12-04T00:40:34.791Z,90.15
2017-12-04T00:43:03.102Z,71.55
2017-12-04T00:45:30.633Z,81.05
2017-12-04T00:47:58.963Z,66.12
2017-12-04T00:50:26.509Z,57.05
2017-12-04T00:52:54.116Z,81.15
2017-12-04T00:55:21.644Z,84.78
2017-12-04T00:57:49.192Z,76.97
2017-12-04T01:00:16.747Z,75.90
2017-12-04T01:02:44.289Z,70.45
2017-12-04T01:05:12.602Z,69.72
2017-12-04T01:07:40.125Z,77.78
2017-12-04T01:10:08.458Z,61.72
2017-12-04T01:12:36.001Z,72.43
2017-12-04T01:15:03.549Z,72.40
2017-12-04T01:17:31.077Z,77.78
2017-12-04T01:19:59.419Z,60.90
2017-12-04T01:22:26.968Z,76.30
2017-12-04T01:24:54.493Z,60.85
2017-12-04T01:27:22.829Z,83.90
2017-12-04T01:29:50.371Z,87.10
2017-12-04T01:32:17.940Z,68.05
2017-12-04T01:34:45.473Z,78.53
2017-12-04T01:37:13.036Z,64.82
2017-12-04T01:39:40.577Z,64.45
2017-12-04T01:42:08.881Z,73.12
2017-12-04T01:44:36.453Z,65.07
2017-12-04T01:47:03.991Z,64.25
2017-12-04T01:49:31.561Z,79.65
2017-12-04T01:51:59.124Z,65.93
2017-12-04T01:54:26.662Z,59.83
2017-12-04T01:56:54.994Z,71.60
2017-12-04T01:59:22.520Z,67.97
2017-12-04T02:01:50.081Z,64.75
2017-12-04T02:04:17.626Z,67.20
2017-12-04T02:06:45.950Z,58.30
2017-12-04T02:09:13.508Z,51.25
2017-12-04T02:11:41.074Z,74.53
2017-12-04T02:14:08.605Z,66.85
2017-12-04T02:16:36.176Z,57.92
2017-12-04T02:19:04.480Z,81.28
2017-12-04T02:21:32.025Z,77.50
2017-12-04T02:23:59.600Z,61.03
2017-12-04T02:26:27.129Z,84.68
2017-12-04T02:28:54.706Z,50.38
2017-12-04T02:31:22.243Z,52.90
2017-12-04T02:33:50.554Z,67.78
2017-12-04T02:36:18.126Z,64.87
2017-12-04T02:38:45.673Z,78.55
2017-12-04T02:41:13.251Z,57.10
2017-12-04T02:43:40.780Z,59.90
2017-12-04T02:46:08.308Z,53.45
2017-12-04T02:48:35.865Z,68.45
2017-12-04T02:51:03.407Z,69.30
2017-12-04T02:53:30.964Z,59.13
2017-12-04T02:55:58.509Z,80.03
2017-12-04T02:58:26.080Z,67.00
2017-12-04T03:00:53.613Z,66.47
2017-12-04T03:03:21.173Z,58.78
2017-12-04T03:05:48.744Z,54.20
2017-12-04T03:08:16.283Z,54.17
2017-12-04T03:10:44.608Z,57.83
2017-12-04T03:13:12.146Z,81.10
2017-12-04T03:15:39.687Z,68.15
2017-12-04T03:18:08.016Z,48.50
2017-12-04T03:20:35.557Z,54.45
2017-12-04T03:23:03.110Z,56.47
2017-12-04T03:25:30.660Z,61.83
2017-12-04T03:27:58.231Z,68.32
2017-12-04T03:30:25.784Z,65.90
2017-12-04T03:32:53.338Z,53.28
2017-12-04T03:35:21.662Z,72.95
2017-12-04T03:37:49.193Z,56.67
2017-12-04T03:40:16.752Z,58.83
2017-12-04T03:42:44.276Z,67.22
2017-12-04T03:45:11.807Z,84.30
2017-12-04T03:47:39.368Z,70.65
2017-12-04T03:50:06.912Z,60.55
2017-12-04T03:52:34.476Z,63.20
2017-12-04T03:55:02.020Z,74.37
2017-12-04T03:57:29.581Z,61.45
2017-12-04T03:59:57.131Z,67.95
2017-12-04T04:02:25.425Z,74.35
2017-12-04T04:04:52.978Z,64.30
2017-12-04T04:07:20.529Z,63.45
2017-12-04T04:09:48.876Z,56.78
2017-12-04T04:12:16.409Z,82.57
2017-12-04T04:14:43.937Z,60.83
2017-12-04T04:17:12.252Z,64.87
2017-12-04T04:19:39.773Z,62.53
2017-12-04T04:22:08.101Z,55.97
2017-12-04T04:24:35.652Z,52.35
2017-12-04T04:27:03.180Z,64.12
2017-12-04T04:29:31.494Z,49.80
2017-12-04T04:31:59.039Z,64.07
2017-12-04T04:34:26.593Z,68.60
2017-12-04T04:36:54.162Z,67.00
2017-12-04T04:39:21.689Z,58.28
2017-12-04T04:41:50.024Z,75.70
2017-12-04T04:44:17.566Z,75.97
2017-12-04T04:46:45.132Z,50.85
2017-12-04T04:49:12.661Z,78.40
2017-12-04T04:51:40.963Z,61.55
2017-12-04T04:54:08.513Z,65.55
2017-12-04T04:56:36.055Z,95.07
2017-12-04T04:59:04.378Z,45.50
2017-12-04T05:01:31.910Z,61.72
2017-12-04T05:04:00.223Z,59.97
2017-12-04T05:06:27.788Z,44.53
2017-12-04T05:08:55.335Z,62.70
2017-12-04T05:11:22.889Z,57.35
2017-12-04T05:13:50.455Z,59.70
2017-12-04T05:16:17.992Z,63.55
2017-12-04T05:18:46.308Z,50.03
2017-12-04T05:21:13.862Z,46.40
2017-12-04T05:23:41.426Z,56.20
2017-12-04T05:26:08.957Z,59.20
2017-12-04T05:28:37.280Z,42.60
2017-12-04T05:31:04.809Z,61.08
2017-12-04T05:33:32.342Z,51.08
2017-12-04T05:36:00.681Z,55.58
2017-12-04T05:38:28.217Z,50.20
2017-12-04T05:40:55.769Z,59.05
2017-12-04T05:43:23.315Z,45.53
2017-12-04T05:45:51.648Z,41.72
2017-12-04T05:48:19.177Z,50.05
2017-12-04T05:50:46.701Z,50.30
2017-12-04T05:53:14.268Z,46.42
2017-12-04T05:55:41.820Z,38.10
2017-12-04T05:58:09.417Z,53.35
2017-12-04T06:00:36.954Z,53.83
2017-12-04T06:03:04.505Z,43.92
2017-12-04T06:05:32.076Z,44.90
2017-12-04T06:07:59.628Z,46.55
2017-12-04T06:10:27.197Z,43.87
2017-12-04T06:12:54.724Z,38.50
2017-12-04T06:15:22.293Z,45.35
2017-12-04T06:17:49.835Z,62.13
2017-12-04T06:20:17.365Z,44.15
2017-12-04T06:22:44.941Z,47.95
2017-12-04T06:25:12.482Z,55.67
2017-12-04T06:27:40.816Z,53.58
2017-12-04T06:30:08.351Z,49.50
2017-12-04T06:32:35.896Z,54.83
2017-12-04T06:35:03.433Z,47.85
2017-12-04T06:37:31.758Z,43.87
2017-12-04T06:39:59.289Z,30.77
2017-12-04T06:42:27.624Z,37.28
2017-12-04T06:44:55.178Z,50.10
2017-12-04T06:47:22.718Z,39.05
2017-12-04T06:49:50.285Z,42.10
2017-12-04T06:52:17.809Z,43.92
2017-12-04T06:54:46.100Z,29.42
2017-12-04T06:57:13.672Z,41.55
2017-12-04T06:59:41.204Z,45.40
2017-12-04T07:02:09.531Z,48.00
2017-12-04T07:04:37.062Z,38.00
2017-12-04T07:07:04.627Z,46.80
2017-12-04T07:09:32.152Z,33.22
2017-12-04T07:11:59.714Z,51.03
2017-12-04T07:14:27.246Z,41.63
2017-12-04T07:16:54.781Z,43.13
2017-12-04T07:19:22.363Z,42.58
2017-12-04T07:21:49.897Z,63.72
2017-12-04T07:24:17.458Z,34.05
2017-12-04T07:26:45.007Z,41.65
2017-12-04T07:29:13.322Z,42.67
2017-12-04T07:31:40.883Z,30.73
2017-12-04T07:34:08.617Z,47.10
2017-12-04T07:36:37.052Z,57.15
2017-12-04T07:39:04.629Z,43.67
2017-12-04T07:41:34.409Z,47.90
2017-12-04T07:44:03.136Z,36.42
2017-12-04T07:46:31.239Z,36.42
2017-12-04T07:49:00.076Z,22.42
2017-12-04T07:51:28.556Z,46.83
2017-12-04T07:53:56.108Z,41.25
2017-12-04T07:56:23.677Z,35.17
2017-12-04T07:58:51.230Z,40.58
2017-12-04T08:01:18.804Z,30.33
2017-12-04T08:03:46.348Z,43.28
2017-12-04T08:06:13.898Z,40.28
2017-12-04T08:08:41.439Z,42.67
2017-12-04T08:11:09.769Z,30.62
2017-12-04T08:13:37.318Z,32.88
2017-12-04T08:16:04.841Z,38.13
2017-12-04T08:18:33.180Z,45.17
2017-12-04T08:21:00.733Z,44.35
2017-12-04T08:23:28.319Z,54.38
2017-12-04T08:25:55.848Z,31.62
2017-12-04T08:28:23.420Z,36.20
2017-12-04T08:30:50.972Z,31.35
2017-12-04T08:33:18.502Z,23.55
2017-12-04T08:35:46.072Z,29.63
2017-12-04T08:38:13.679Z,30.55
2017-12-04T08:40:41.294Z,26.30
2017-12-04T08:43:08.827Z,31.27
2017-12-04T08:45:36.375Z,41.40
2017-12-04T08:48:03.939Z,29.00
2017-12-04T08:50:31.476Z,24.75
2017-12-04T08:52:59.809Z,46.83
2017-12-04T08:55:28.127Z,35.40
2017-12-04T08:57:55.681Z,29.25
2017-12-04T09:00:23.212Z,31.08
2017-12-04T09:02:51.523Z,41.37
2017-12-04T09:05:19.088Z,29.95
2017-12-04T09:07:46.631Z,28.62
2017-12-04T09:10:14.187Z,27.90
2017-12-04T09:12:41.738Z,35.92
2017-12-04T09:15:10.095Z,39.65
2017-12-04T09:17:37.647Z,17.70
2017-12-04T09:20:05.193Z,28.48
2017-12-04T09:22:32.745Z,35.25
2017-12-04T09:25:00.270Z,27.10
2017-12-04T09:27:27.832Z,45.45
2017-12-04T09:29:55.379Z,40.08
2017-12-04T09:32:23.688Z,24.37
2017-12-04T09:34:51.261Z,27.70
2017-12-04T09:37:18.892Z,19.90
2017-12-04T09:39:47.243Z,29.52
2017-12-04T09:42:14.797Z,41.97
2017-12-04T09:44:42.364Z,23.65
2017-12-04T09:47:10.023Z,19.05
2017-12-04T09:49:37.608Z,27.73
2017-12-04T09:52:07.792Z,27.15
2017-12-04T09:54:35.370Z,35.60
2017-12-04T09:57:03.564Z,25.40
2017-12-04T09:59:36.188Z,24.83
2017-12-04T10:02:05.015Z,24.98
2017-12-04T10:04:33.742Z,23.83
2017-12-04T10:07:02.908Z,28.92
2017-12-04T10:09:33.754Z,18.08
2017-12-04T10:12:04.101Z,24.52
2017-12-04T10:14:34.495Z,36.05
2017-12-04T10:17:07.913Z,24.25
2017-12-04T10:22:31.615Z,33.75
2017-12-04T10:25:03.065Z,25.88
2017-12-04T10:27:32.159Z,18.08
2017-12-04T10:30:00.489Z,32.33
2017-12-04T10:32:28.052Z,23.27
2017-12-04T10:34:55.600Z,36.95
2017-12-04T10:37:23.175Z,20.92
2017-12-04T10:39:50.712Z,19.92
2017-12-04T10:42:19.020Z,29.92
2017-12-04T10:44:46.583Z,22.52
2017-12-04T10:47:14.128Z,34.95
2017-12-04T10:49:41.681Z,19.35
2017-12-04T10:52:09.232Z,21.60
2017-12-04T10:54:37.521Z,15.32
2017-12-04T10:57:05.069Z,19.77
2017-12-04T10:59:33.369Z,14.45
2017-12-04T11:02:00.943Z,35.05
2017-12-04T11:04:28.495Z,13.45
2017-12-04T11:06:56.017Z,19.45
2017-12-04T11:09:23.596Z,14.68
2017-12-04T11:11:51.907Z,28.58
2017-12-04T11:14:19.484Z,16.08
2017-12-04T11:16:47.034Z,19.90
2017-12-04T11:19:14.586Z,22.05
2017-12-04T11:21:42.138Z,13.75
2017-12-04T11:24:09.677Z,17.33
2017-12-04T11:26:38.016Z,14.90
2017-12-04T11:29:05.565Z,12.63
2017-12-04T11:31:33.100Z,12.30
2017-12-04T11:34:00.648Z,16.95
2017-12-04T11:36:28.946Z,25.92
2017-12-04T11:38:56.527Z,11.95
2017-12-04T11:41:24.069Z,19.62
2017-12-04T11:43:51.593Z,10.25
2017-12-04T11:46:19.179Z,17.02
2017-12-04T11:48:46.709Z,32.60
2017-12-04T11:51:15.308Z,12.95
2017-12-04T11:53:43.600Z,14.60
2017-12-04T11:56:11.146Z,16.70
2017-12-04T11:58:39.469Z,20.70
2017-12-04T12:01:06.993Z,28.40
2017-12-04T12:03:35.314Z,18.48
2017-12-04T12:06:02.842Z,19.15
2017-12-04T12:08:31.133Z,21.83
2017-12-04T12:10:58.822Z,11.98
2017-12-04T12:13:26.368Z,13.45
2017-12-04T12:15:53.944Z,14.38
2017-12-04T12:18:21.520Z,21.27
2017-12-04T12:20:49.144Z,13.38
2017-12-04T20:07:01.198Z,18.77
2017-12-04T20:12:28.373Z,37.47
2017-12-04T20:32:36.766Z,23.45
2017-12-04T20:49:59.481Z,35.95
2017-12-04T20:52:36.703Z,24.42
